createdAt,value
2024-01-07T00:02:41.794Z,23.50
2024-01-07T00:04:44.525Z,11.63
2024-01-07T00:06:48.120Z,21.58
2024-01-07T00:08:50.201Z,21.98
2024-01-07T00:10:54.578Z,19.98
2024-01-07T00:12:56.801Z,19.65
2024-01-07T00:14:59.766Z,19.55
2024-01-07T00:17:01.629Z,24.40
2024-01-07T00:19:03.950Z,18.67
2024-01-07T00:21:06.157Z,21.58
2024-01-07T00:25:09.987Z,12.23
2024-01-07T00:29:13.897Z,24.17
2024-01-07T00:33:17.900Z,20.77
2024-01-07T00:37:22.109Z,16.65
2024-01-07T00:41:26.150Z,18.58
2024-01-07T00:45:30.020Z,14.65
2024-01-07T00:49:33.875Z,17.00
2024-01-07T00:53:37.614Z,18.55
2024-01-07T00:55:39.576Z,25.67
2024-01-07T00:57:42.176Z,25.55
2024-01-07T00:59:44.137Z,26.55
2024-01-07T01:01:46.215Z,22.00
2024-01-07T01:05:50.552Z,23.50
2024-01-07T01:09:55.231Z,13.60
2024-01-07T01:13:59.045Z,13.48
2024-01-07T01:16:00.997Z,15.15
2024-01-07T01:20:05.678Z,24.63
2024-01-07T01:22:07.810Z,26.02
2024-01-07T01:24:09.856Z,14.95
2024-01-07T01:28:13.735Z,27.65
2024-01-07T01:32:17.831Z,21.00
2024-01-07T01:36:21.654Z,23.63
2024-01-07T01:38:23.629Z,22.13
2024-01-07T01:40:25.634Z,18.88
2024-01-07T01:42:27.649Z,23.55
2024-01-07T01:46:31.569Z,23.38
2024-01-07T01:50:35.704Z,19.75
2024-01-07T01:52:38.109Z,23.23
2024-01-07T01:54:40.087Z,22.10
2024-01-07T01:58:44.044Z,21.15
2024-01-07T02:02:48.210Z,12.23
2024-01-07T02:06:52.060Z,15.15
2024-01-07T02:10:55.914Z,22.90
2024-01-07T02:12:59.140Z,17.10
2024-01-07T02:15:01.129Z,14.15
2024-01-07T02:17:03.065Z,21.08
2024-01-07T02:19:06.512Z,26.00
2024-01-07T02:21:10.176Z,25.08
2024-01-07T02:23:12.099Z,21.27
2024-01-07T02:25:14.128Z,17.50
2024-01-07T02:29:18.076Z,11.48
2024-01-07T02:31:20.111Z,13.30
2024-01-07T02:35:24.148Z,13.43
2024-01-07T02:37:26.038Z,21.95
2024-01-07T02:39:28.028Z,16.05
2024-01-07T02:41:30.042Z,15.32
2024-01-07T02:43:32.008Z,16.42
2024-01-07T02:45:33.968Z,11.45
2024-01-07T02:49:37.959Z,18.38
2024-01-07T02:51:40.059Z,19.67
2024-01-07T02:55:43.759Z,16.83
2024-01-07T02:57:45.759Z,19.70
2024-01-07T03:01:49.795Z,14.95
2024-01-07T03:07:56.350Z,9.15
2024-01-07T03:12:00.259Z,17.52
2024-01-07T03:16:04.395Z,14.45
2024-01-07T03:18:06.570Z,11.02
2024-01-07T03:20:09.124Z,16.38
2024-01-07T03:22:11.206Z,15.18
2024-01-07T03:24:13.118Z,16.65
2024-01-07T03:26:15.418Z,13.00
2024-01-07T03:28:17.408Z,17.08
2024-01-07T03:32:21.250Z,22.80
2024-01-07T03:34:23.398Z,13.95
2024-01-07T03:36:26.120Z,12.55
2024-01-07T03:38:28.119Z,10.32
2024-01-07T03:42:31.987Z,10.82
2024-01-07T03:46:35.794Z,12.75
2024-01-07T03:48:37.882Z,15.10
2024-01-07T03:50:41.299Z,19.98
2024-01-07T03:52:43.347Z,20.58
2024-01-07T03:56:47.293Z,19.08
2024-01-07T03:58:49.239Z,20.10
2024-01-07T04:00:51.204Z,26.73
2024-01-07T04:04:55.106Z,10.77
2024-01-07T04:06:57.485Z,18.80
2024-01-07T04:08:59.449Z,14.73
2024-01-07T04:13:06.083Z,25.50
2024-01-07T04:15:08.355Z,15.43
2024-01-07T04:17:10.363Z,28.63
2024-01-07T04:21:14.482Z,15.77
2024-01-07T04:25:18.436Z,20.98
2024-01-07T04:29:22.341Z,14.18
2024-01-07T04:33:26.433Z,17.33
2024-01-07T04:35:28.478Z,24.98
2024-01-07T04:39:32.374Z,24.98
2024-01-07T04:41:34.506Z,14.50
2024-01-07T04:43:38.014Z,19.60
2024-01-07T04:45:39.950Z,26.90
2024-01-07T04:49:43.794Z,27.85
2024-01-07T04:53:47.929Z,15.10
2024-01-07T04:55:49.883Z,23.27
2024-01-07T04:59:54.866Z,19.27
2024-01-07T05:01:57.587Z,21.45
2024-01-07T05:03:59.659Z,12.30
2024-01-07T05:06:03.034Z,21.48
2024-01-07T05:08:05.272Z,21.35
2024-01-07T05:10:07.890Z,18.95
2024-01-07T05:12:09.886Z,33.15
2024-01-07T05:16:21.557Z,25.42
2024-01-07T05:18:24.515Z,16.95
2024-01-07T05:20:26.537Z,18.45
2024-01-07T05:24:31.764Z,18.50
2024-01-07T05:26:43.040Z,14.13
2024-01-07T05:28:45.027Z,24.25
2024-01-07T05:32:49.078Z,15.95
2024-01-07T05:34:51.820Z,23.70
2024-01-07T05:36:53.964Z,16.58
2024-01-07T05:40:57.819Z,17.73
2024-01-07T05:42:59.854Z,23.70
2024-01-07T05:45:01.988Z,15.00
2024-01-07T05:47:05.273Z,22.77
2024-01-07T05:49:07.487Z,26.50
2024-01-07T05:51:10.283Z,16.80
2024-01-07T05:53:12.205Z,20.48
2024-01-07T05:55:14.374Z,25.15
2024-01-07T05:57:16.377Z,22.38
2024-01-07T06:01:23.472Z,15.45
2024-01-07T06:03:25.787Z,14.02
2024-01-07T06:05:27.813Z,12.00
2024-01-07T06:07:30.250Z,16.73
2024-01-07T06:09:32.271Z,20.30
2024-01-07T06:13:36.077Z,14.85
2024-01-07T06:17:39.806Z,19.50
2024-01-07T06:19:41.865Z,21.52
2024-01-07T06:23:46.171Z,24.00
2024-01-07T06:25:48.088Z,17.17
2024-01-07T06:27:50.071Z,16.85
2024-01-07T06:31:53.976Z,17.98
2024-01-07T06:33:59.038Z,14.48
2024-01-07T06:36:02.208Z,11.15
2024-01-07T06:38:05.531Z,21.48
2024-01-07T06:40:08.050Z,10.68
2024-01-07T06:42:09.947Z,8.75
2024-01-07T06:44:11.975Z,9.73
2024-01-07T06:48:16.001Z,16.30
2024-01-07T06:52:22.168Z,13.35
2024-01-07T06:54:24.160Z,13.55
2024-01-07T06:58:28.000Z,17.20
2024-01-07T07:00:29.965Z,11.40
2024-01-07T07:04:33.752Z,16.42
2024-01-07T07:08:40.164Z,11.25
2024-01-07T07:12:43.958Z,13.05
2024-01-07T07:16:47.777Z,11.88
2024-01-07T07:18:49.847Z,14.27
2024-01-07T07:22:53.650Z,10.02
2024-01-07T07:24:56.750Z,18.52
2024-01-07T07:27:01.071Z,9.82
2024-01-07T07:31:05.430Z,8.18
2024-01-07T07:33:07.564Z,14.13
2024-01-07T07:35:09.616Z,12.20
2024-01-07T07:39:15.363Z,11.35
2024-01-07T07:41:17.411Z,9.38
2024-01-07T07:45:22.570Z,12.45
2024-01-07T07:49:28.728Z,16.92
2024-01-07T07:51:31.441Z,12.57
2024-01-07T07:53:33.399Z,14.60
2024-01-07T07:57:37.611Z,14.38
2024-01-07T07:59:39.524Z,8.90
2024-01-07T08:01:41.557Z,14.20
2024-01-07T08:05:45.674Z,13.00
2024-01-07T08:09:49.808Z,15.43
2024-01-07T08:13:53.571Z,12.40
2024-01-07T08:17:58.792Z,13.82
2024-01-07T08:22:05.816Z,13.77
2024-01-07T08:24:08.121Z,18.60
2024-01-07T08:26:10.121Z,17.95
2024-01-07T08:30:14.983Z,16.23
2024-01-07T08:32:17.106Z,14.57
2024-01-07T08:36:20.954Z,11.93
2024-01-07T08:40:25.602Z,14.05
2024-01-07T08:42:31.270Z,11.52
2024-01-07T08:44:33.218Z,14.80
2024-01-07T08:46:35.927Z,14.75
2024-01-07T08:48:38.107Z,11.45
2024-01-07T08:50:40.306Z,10.98
2024-01-07T08:52:42.289Z,13.23
2024-01-07T08:56:46.944Z,15.15
2024-01-07T08:58:48.921Z,11.52
2024-01-07T09:02:56.483Z,20.45
2024-01-07T09:04:59.123Z,16.63
2024-01-07T09:07:01.480Z,13.43
2024-01-07T09:09:07.064Z,9.32
2024-01-07T09:11:12.328Z,13.52
2024-01-07T09:13:14.436Z,15.40
2024-01-07T09:15:19.915Z,12.90
2024-01-07T09:17:22.721Z,9.52
2024-01-07T09:19:24.884Z,14.20
2024-01-07T09:21:27.028Z,18.10
2024-01-07T09:25:31.019Z,11.43
2024-01-07T09:27:34.368Z,17.80
2024-01-07T09:29:36.402Z,14.73
2024-01-07T09:33:40.663Z,17.42
2024-01-07T09:35:44.893Z,24.23
2024-01-07T09:37:46.981Z,12.30
2024-01-07T09:39:49.060Z,11.85
2024-01-07T09:41:51.164Z,12.55
2024-01-07T09:45:58.995Z,10.70
2024-01-07T09:48:01.142Z,9.85
2024-01-07T09:50:03.135Z,10.15
2024-01-07T09:54:14.950Z,11.77
2024-01-07T09:56:30.871Z,14.02
2024-01-07T09:58:32.943Z,14.82
2024-01-07T10:00:35.697Z,8.38
2024-01-07T10:02:37.741Z,8.55
2024-01-07T10:06:42.528Z,8.02
2024-01-07T10:10:46.313Z,12.40
2024-01-07T10:14:50.532Z,13.98
2024-01-07T10:16:55.209Z,13.38
2024-01-07T10:18:58.630Z,13.02
2024-01-07T10:21:05.104Z,15.93
2024-01-07T10:23:09.130Z,11.68
2024-01-07T10:25:11.169Z,13.05
2024-01-07T10:27:14.444Z,14.73
2024-01-07T10:29:17.087Z,12.80
2024-01-07T10:31:20.007Z,14.73
2024-01-07T10:33:24.157Z,12.82
2024-01-07T10:35:36.964Z,8.95
2024-01-07T10:37:39.161Z,11.02
2024-01-07T10:39:41.125Z,15.35
2024-01-07T10:43:49.302Z,7.18
2024-01-07T10:45:52.042Z,12.30
2024-01-07T10:47:59.331Z,17.10
2024-01-07T10:50:04.437Z,17.38
2024-01-07T10:52:10.121Z,10.43
2024-01-07T10:54:14.829Z,8.73
2024-01-07T10:56:21.293Z,15.50
2024-01-07T10:58:24.117Z,16.10
2024-01-07T11:00:26.013Z,14.80
2024-01-07T11:04:41.645Z,7.45
2024-01-07T11:06:56.336Z,10.23
2024-01-07T11:09:15.699Z,10.10
2024-01-07T11:11:26.844Z,11.07
2024-01-07T11:13:46.623Z,13.35
2024-01-07T11:15:52.094Z,8.13
2024-01-07T11:17:54.096Z,8.98
2024-01-07T11:22:30.267Z,8.38
2024-01-07T11:24:42.524Z,9.88
2024-01-07T11:26:47.611Z,6.75
2024-01-07T11:28:51.700Z,6.45
2024-01-07T11:30:55.658Z,8.23
2024-01-07T11:33:02.624Z,8.30
2024-01-07T11:35:05.608Z,11.27
2024-01-07T11:37:11.305Z,6.25
2024-01-07T11:39:13.570Z,10.60
2024-01-07T11:41:18.493Z,8.45
2024-01-07T11:43:20.558Z,8.73
2024-01-07T11:45:23.280Z,9.25
2024-01-07T11:47:29.185Z,10.68
2024-01-07T11:49:31.304Z,13.60
2024-01-07T11:51:34.057Z,12.07
2024-01-07T11:53:36.340Z,16.10
2024-01-07T11:55:38.621Z,13.70
2024-01-07T11:57:40.567Z,15.73
2024-01-07T12:01:47.750Z,11.25
2024-01-07T12:03:51.188Z,14.73
2024-01-07T12:05:53.337Z,12.30
2024-01-07T12:07:55.441Z,9.00
2024-01-07T12:09:59.488Z,11.23
2024-01-07T12:12:02.305Z,8.63
2024-01-07T12:14:05.080Z,8.38
2024-01-07T12:16:08.368Z,7.32
2024-01-07T12:18:10.951Z,10.20
2024-01-07T12:20:12.927Z,7.45
2024-01-07T12:24:16.941Z,11.05
2024-01-07T12:28:22.922Z,10.13
2024-01-07T12:30:26.284Z,8.40
2024-01-07T12:32:29.355Z,8.35
2024-01-07T12:34:32.105Z,10.65
2024-01-07T12:36:35.428Z,9.82
2024-01-07T12:38:40.465Z,12.70
2024-01-07T12:40:42.568Z,10.45
2024-01-07T12:42:48.493Z,11.48
2024-01-07T12:44:50.537Z,14.77
2024-01-07T12:48:55.327Z,9.10
2024-01-07T12:50:57.853Z,8.60
2024-01-07T12:53:00.140Z,9.45
2024-01-07T12:55:02.464Z,9.50
2024-01-07T12:57:04.817Z,13.88
2024-01-07T12:59:06.780Z,8.27
2024-01-07T13:03:18.426Z,7.80
2024-01-07T13:05:20.614Z,6.70
2024-01-07T13:07:24.490Z,11.48
2024-01-07T13:09:26.603Z,11.10
2024-01-07T13:13:30.537Z,10.02
2024-01-07T13:15:32.766Z,7.40
2024-01-07T13:17:34.884Z,9.07
2024-01-07T13:19:37.012Z,6.82
2024-01-07T13:21:42.617Z,8.10
2024-01-07T13:23:45.413Z,8.60
2024-01-07T13:25:47.479Z,6.22
2024-01-07T13:27:49.404Z,13.18
2024-01-07T13:31:53.611Z,12.32
2024-01-07T13:33:55.750Z,7.35
2024-01-07T13:35:57.719Z,12.43
2024-01-07T13:40:02.523Z,7.60
2024-01-07T13:42:05.043Z,8.45
2024-01-07T13:44:08.440Z,10.90
2024-01-07T13:46:10.541Z,10.20
2024-01-07T13:48:12.652Z,9.98
2024-01-07T13:50:14.794Z,10.05
2024-01-07T13:52:17.143Z,7.93
2024-01-07T13:54:19.106Z,6.63
2024-01-07T13:58:24.213Z,9.68
2024-01-07T14:00:26.105Z,12.57
2024-01-07T14:02:28.095Z,11.45
2024-01-07T14:06:32.843Z,7.13
2024-01-07T14:08:34.863Z,7.30
2024-01-07T14:12:40.063Z,9.85
2024-01-07T14:14:42.053Z,12.63
2024-01-07T14:18:45.899Z,6.78
2024-01-07T14:20:47.953Z,10.93
2024-01-07T14:24:51.832Z,12.18
2024-01-07T14:29:09.213Z,7.70
2024-01-07T14:31:18.701Z,6.55
2024-01-07T14:33:20.910Z,8.40
2024-01-07T14:35:24.001Z,6.93
2024-01-07T14:37:27.800Z,11.43
2024-01-07T14:39:29.891Z,7.90
2024-01-07T14:41:31.823Z,12.23
2024-01-07T14:45:36.560Z,8.55
2024-01-07T14:47:38.584Z,10.43
2024-01-07T14:49:40.719Z,16.73
2024-01-07T14:51:42.708Z,13.70
2024-01-07T14:55:46.653Z,12.43
2024-01-07T14:57:49.191Z,7.00
2024-01-07T14:59:51.146Z,9.60
2024-01-07T15:03:57.076Z,12.30
2024-01-07T15:05:59.428Z,12.13
2024-01-07T15:08:02.114Z,11.75
2024-01-07T15:10:04.276Z,13.68
2024-01-07T15:12:06.605Z,12.00
2024-01-07T15:14:09.409Z,6.72
2024-01-07T15:16:11.533Z,9.48
2024-01-07T15:18:14.209Z,6.32
2024-01-07T15:20:16.550Z,11.68
2024-01-07T15:22:18.668Z,11.38
2024-01-07T15:24:20.676Z,15.00
2024-01-07T15:26:22.752Z,15.10
2024-01-07T15:30:26.830Z,7.07
2024-01-07T15:32:29.123Z,8.25
2024-01-07T15:34:31.324Z,9.70
2024-01-07T15:36:37.882Z,14.05
2024-01-07T15:38:39.809Z,12.43
2024-01-07T15:42:43.662Z,14.20
2024-01-07T15:44:45.581Z,6.57
2024-01-07T15:48:49.808Z,4.88
2024-01-07T15:50:51.906Z,7.93
2024-01-07T15:52:53.874Z,11.18
2024-01-07T15:56:57.793Z,11.07
2024-01-07T16:01:04.783Z,11.18
2024-01-07T16:03:07.089Z,11.15
2024-01-07T16:05:09.811Z,8.45
2024-01-07T16:07:13.400Z,12.95
2024-01-07T16:09:15.501Z,12.02
2024-01-07T16:11:19.029Z,11.63
2024-01-07T16:13:21.202Z,10.95
2024-01-07T16:15:23.157Z,6.70
2024-01-07T16:19:27.332Z,10.77
2024-01-07T16:21:29.858Z,7.68
2024-01-07T16:23:32.244Z,8.98
2024-01-07T16:25:34.351Z,8.95
2024-01-07T16:27:36.768Z,10.23
2024-01-07T16:29:44.934Z,9.07
2024-01-07T16:31:48.272Z,7.65
2024-01-07T16:35:52.230Z,10.88
2024-01-07T16:37:54.178Z,8.98
2024-01-07T16:41:58.784Z,8.02
2024-01-07T16:44:00.825Z,5.03
2024-01-07T16:46:06.987Z,10.55
2024-01-07T16:48:09.141Z,5.47
2024-01-07T16:50:21.593Z,7.97
2024-01-07T16:52:26.684Z,10.05
2024-01-07T16:54:30.223Z,7.70
2024-01-07T16:56:32.189Z,7.78
2024-01-07T16:58:34.321Z,8.63
2024-01-07T17:00:36.306Z,16.40
2024-01-07T17:02:38.349Z,8.50
2024-01-07T17:04:40.493Z,10.68
2024-01-07T17:06:42.505Z,9.60
2024-01-07T17:10:47.303Z,8.80
2024-01-07T17:12:49.298Z,9.45
2024-01-07T17:16:56.241Z,8.70
2024-01-07T17:18:59.387Z,12.98
2024-01-07T17:21:01.434Z,8.90
2024-01-07T17:23:03.479Z,8.88
2024-01-07T17:25:06.860Z,7.05
2024-01-07T17:27:08.808Z,7.18
2024-01-07T17:29:11.853Z,11.50
2024-01-07T17:31:14.408Z,7.38
2024-01-07T17:33:16.509Z,11.60
2024-01-07T17:35:18.631Z,11.77
2024-01-07T17:37:20.882Z,8.82
2024-01-07T17:39:22.840Z,7.93
2024-01-07T17:43:27.056Z,5.95
2024-01-07T17:45:29.580Z,9.75
2024-01-07T17:47:35.839Z,6.50
2024-01-07T17:49:38.028Z,5.82
2024-01-07T17:51:45.008Z,6.78
2024-01-07T17:53:46.982Z,6.57
2024-01-07T17:57:50.916Z,6.63
2024-01-07T17:59:53.546Z,8.27
2024-01-07T18:01:56.510Z,9.05
2024-01-07T18:03:58.497Z,6.03
2024-01-07T18:08:05.184Z,7.78
2024-01-07T18:10:12.321Z,8.77
2024-01-07T18:12:14.972Z,9.98
2024-01-07T18:14:19.495Z,6.78
2024-01-07T18:16:21.561Z,12.18
2024-01-07T18:20:26.851Z,7.35
2024-01-07T18:22:28.868Z,10.68
2024-01-07T18:24:34.068Z,9.43
2024-01-07T18:26:36.380Z,8.18
2024-01-07T18:28:38.608Z,6.75
2024-01-07T18:30:40.704Z,7.00
2024-01-07T18:32:43.928Z,7.15
2024-01-07T18:34:46.299Z,11.35
2024-01-07T18:36:49.152Z,5.40
2024-01-07T18:38:51.261Z,7.97
2024-01-07T18:40:53.665Z,11.27
2024-01-07T18:42:56.976Z,7.30
2024-01-07T18:44:59.133Z,11.50
2024-01-07T18:47:01.331Z,7.70
2024-01-07T18:49:04.610Z,5.38
2024-01-07T18:51:06.646Z,5.90
2024-01-07T18:53:08.631Z,6.80
2024-01-07T18:55:11.118Z,3.45
2024-01-07T18:57:18.150Z,6.75
2024-01-07T18:59:20.683Z,5.18
2024-01-07T19:01:24.732Z,6.43
2024-01-07T19:03:27.790Z,7.20
2024-01-07T19:05:30.336Z,8.02
2024-01-07T19:07:32.424Z,12.23
2024-01-07T19:09:34.476Z,9.50
2024-01-07T19:11:37.628Z,8.90
2024-01-07T19:13:39.637Z,10.32
2024-01-07T19:15:43.492Z,5.05
2024-01-07T19:17:49.256Z,9.18
2024-01-07T19:19:51.514Z,5.40
2024-01-07T19:21:55.583Z,5.90
2024-01-07T19:23:57.611Z,4.95
2024-01-07T19:25:59.827Z,8.90
2024-01-07T19:28:02.059Z,6.03
2024-01-07T19:30:04.537Z,7.13
2024-01-07T19:32:07.034Z,8.43
2024-01-07T19:34:09.327Z,11.07
2024-01-07T19:36:11.420Z,9.98
2024-01-07T19:38:13.768Z,9.38
2024-01-07T19:40:16.127Z,9.27
2024-01-07T19:42:20.190Z,8.23
2024-01-07T19:44:23.374Z,5.35
2024-01-07T19:46:27.681Z,7.90
2024-01-07T19:48:30.114Z,6.13
2024-01-07T19:50:32.449Z,5.78
2024-01-07T19:52:36.626Z,5.57
2024-01-07T19:54:39.869Z,5.40
2024-01-07T19:56:42.207Z,4.80
2024-01-07T19:58:45.258Z,3.85
2024-01-07T20:00:49.608Z,6.10
2024-01-07T20:02:55.569Z,7.15
2024-01-07T20:04:59.573Z,6.00
2024-01-07T20:07:04.838Z,7.40
2024-01-07T20:09:08.170Z,8.60
2024-01-07T20:11:20.806Z,6.32
2024-01-07T20:13:24.193Z,4.85
2024-01-07T20:15:26.191Z,7.20
2024-01-07T20:17:28.634Z,4.22
2024-01-07T20:19:30.871Z,7.38
2024-01-07T20:21:33.159Z,4.60
2024-01-07T20:23:35.116Z,8.55
2024-01-07T20:25:39.102Z,9.05
2024-01-07T20:27:41.379Z,6.72
2024-01-07T20:29:46.002Z,3.88
2024-01-07T20:31:48.743Z,5.85
2024-01-07T20:33:51.876Z,7.05
2024-01-07T20:35:56.238Z,6.20
2024-01-07T20:37:58.156Z,5.32
2024-01-07T20:40:00.380Z,8.48
2024-01-07T20:42:02.573Z,7.45
2024-01-07T20:44:05.839Z,6.10
2024-01-07T20:46:09.235Z,5.47
2024-01-07T20:48:11.389Z,8.73
2024-01-07T20:50:13.597Z,8.23
2024-01-07T20:52:19.907Z,7.53
2024-01-07T20:54:21.978Z,4.13
2024-01-07T20:56:23.930Z,7.97
2024-01-07T20:58:31.036Z,5.18
2024-01-07T21:00:33.754Z,6.10
2024-01-07T21:02:35.858Z,8.40
2024-01-07T21:04:37.791Z,8.43
2024-01-07T21:08:42.309Z,4.63
2024-01-07T21:10:44.313Z,5.53
2024-01-07T21:12:46.612Z,5.25
2024-01-07T21:14:48.518Z,6.55
2024-01-07T21:18:52.528Z,8.27
2024-01-07T21:20:55.860Z,4.40
2024-01-07T21:22:58.175Z,5.68
2024-01-07T21:25:00.294Z,6.05
2024-01-07T21:27:02.241Z,7.00
2024-01-07T21:31:06.901Z,6.55
2024-01-07T21:33:09.203Z,5.93
2024-01-07T21:35:11.691Z,5.57
2024-01-07T21:37:13.997Z,7.53
2024-01-07T21:39:16.056Z,7.90
2024-01-07T21:41:17.978Z,9.27
2024-01-07T21:43:20.005Z,5.70
2024-01-07T21:45:22.032Z,6.15
2024-01-07T21:47:24.236Z,7.70
2024-01-07T21:49:26.292Z,6.03
2024-01-07T21:51:32.767Z,9.68
2024-01-07T21:53:34.743Z,9.32
2024-01-07T21:55:38.646Z,6.93
2024-01-07T21:57:40.627Z,4.93
2024-01-07T21:59:42.541Z,6.70
2024-01-07T22:03:46.442Z,7.63
2024-01-07T22:05:48.538Z,7.68
2024-01-07T22:07:50.782Z,7.32
2024-01-07T22:09:52.791Z,12.43
2024-01-07T22:11:54.871Z,5.30
2024-01-07T22:13:56.879Z,6.07
2024-01-07T22:15:58.768Z,7.32
2024-01-07T22:20:02.986Z,7.15
2024-01-07T22:22:05.870Z,7.97
2024-01-07T22:24:11.236Z,5.22
2024-01-07T22:26:15.482Z,7.55
2024-01-07T22:28:17.473Z,7.93
2024-01-07T22:30:19.397Z,7.65
2024-01-07T22:32:21.459Z,6.75
2024-01-07T22:34:23.575Z,8.40
2024-01-07T22:36:25.678Z,12.40
2024-01-07T22:38:27.737Z,7.78
2024-01-07T22:40:30.270Z,13.15
2024-01-07T22:42:32.195Z,8.68
2024-01-07T22:44:35.424Z,9.52
2024-01-07T22:46:43.387Z,7.88
2024-01-07T22:48:45.484Z,8.73
2024-01-07T22:50:47.540Z,12.48
2024-01-07T22:52:49.506Z,12.93
2024-01-07T22:54:51.456Z,10.60
2024-01-07T22:56:53.515Z,10.50
2024-01-07T22:58:55.480Z,8.98
2024-01-07T23:00:57.584Z,9.43
2024-01-07T23:02:59.632Z,7.30
2024-01-07T23:05:02.297Z,8.32
2024-01-07T23:07:04.422Z,11.07
2024-01-07T23:09:06.687Z,9.52
2024-01-07T23:11:08.920Z,13.30
2024-01-07T23:13:11.506Z,12.70
2024-01-07T23:15:13.690Z,7.82
2024-01-07T23:17:15.766Z,9.35
2024-01-07T23:19:17.842Z,6.55
2024-01-07T23:21:20.979Z,7.75
2024-01-07T23:23:33.707Z,8.07
2024-01-07T23:25:35.701Z,5.47
2024-01-07T23:27:40.381Z,9.85
2024-01-07T23:29:42.593Z,6.95
2024-01-07T23:31:47.087Z,7.70
2024-01-07T23:33:49.435Z,9.95
2024-01-07T23:35:58.284Z,6.97
2024-01-07T23:38:04.239Z,10.88
2024-01-07T23:40:06.763Z,8.15
2024-01-07T23:42:08.784Z,7.78
2024-01-07T23:44:10.757Z,9.60
2024-01-07T23:46:12.870Z,7.15
2024-01-07T23:48:14.951Z,6.97
2024-01-07T23:50:17.031Z,9.65
2024-01-07T23:52:19.110Z,8.85
2024-01-07T23:54:21.221Z,9.02
2024-01-07T23:56:23.428Z,13.25
2024-01-07T23:58:25.512Z,12.82
